Time;durP1;ratioP1;P1;durP2;ratioP2;P2;SDS_P1;SDS_P2;PMS_P1;PMS_P2;Temp;Humidity;BMP_temperature;BMP_pressure;BME280_temperature;BME280_humidity;BME280_pressure;Samples;Min_cycle;Max_cycle;Signal;HPM_P1;HPM_P2
2021/12/30 00:01:11;;;;;;;7.80;5.72;;;;;;;7.66;84.80;99982.91;5012058;28;20026;-77
2021/12/30 00:03:37;;;;;;;7.35;5.28;;;;;;;7.72;85.16;99989.88;5012222;28;20550;-77
2021/12/30 00:06:03;;;;;;;8.55;5.03;;;;;;;7.75;85.29;99984.63;5011693;28;20080;-78
2021/12/30 00:08:29;;;;;;;6.97;4.97;;;;;;;7.80;84.93;99988.97;5011883;28;20069;-77
2021/12/30 00:10:54;;;;;;;8.50;5.55;;;;;;;7.82;85.47;99981.09;5011839;28;20037;-77
2021/12/30 00:13:20;;;;;;;6.97;4.72;;;;;;;7.87;85.44;99985.44;5011907;28;20041;-77
2021/12/30 00:15:46;;;;;;;6.63;5.22;;;;;;;7.86;84.67;99978.47;5011639;28;20404;-77
2021/12/30 00:18:11;;;;;;;8.32;4.72;;;;;;;7.90;84.91;99980.16;5011667;28;20029;-77
2021/12/30 00:20:38;;;;;;;7.20;5.05;;;;;;;7.93;85.52;99986.31;5011767;28;20443;-76
2021/12/30 00:23:06;;;;;;;9.05;4.88;;;;;;;7.95;84.99;99981.91;5007517;28;20445;-77
2021/12/30 00:25:38;;;;;;;7.32;5.03;;;;;;;7.87;85.58;99977.56;5007608;28;20113;-77
2021/12/30 00:28:05;;;;;;;8.50;5.13;;;;;;;7.90;85.60;99982.81;5008224;28;20497;-77
2021/12/30 00:30:31;;;;;;;8.18;5.47;;;;;;;7.95;85.31;99982.78;5010359;28;20049;-77
2021/12/30 00:32:56;;;;;;;8.30;5.10;;;;;;;7.96;86.24;99979.28;5007798;28;20038;-77
2021/12/30 00:35:22;;;;;;;7.95;5.13;;;;;;;7.92;85.69;99980.19;5011578;28;20096;-77
2021/12/30 00:37:47;;;;;;;6.85;5.30;;;;;;;7.93;85.93;99970.53;5010400;28;20034;-77
2021/12/30 00:40:13;;;;;;;8.82;6.40;;;;;;;7.92;85.92;99974.94;5011623;28;20041;-77
2021/12/30 00:42:38;;;;;;;8.55;5.63;;;;;;;7.89;85.94;99970.56;5011427;28;20034;-77
2021/12/30 00:45:04;;;;;;;8.68;5.45;;;;;;;7.86;86.14;99978.47;5011452;28;20527;-77
2021/12/30 00:47:30;;;;;;;9.10;6.20;;;;;;;7.82;86.47;99979.34;5011430;28;20038;-77
2021/12/30 00:49:56;;;;;;;8.35;5.70;;;;;;;7.72;87.01;99976.75;5018598;28;20034;-77
2021/12/30 00:52:22;;;;;;;8.18;5.95;;;;;;;7.73;87.72;99981.13;5011520;28;20497;-77
2021/12/30 00:54:47;;;;;;;8.48;6.22;;;;;;;7.76;87.81;99976.75;5011324;28;20034;-77
2021/12/30 00:57:13;;;;;;;7.88;5.35;;;;;;;7.79;87.20;99974.09;5010120;28;20677;-77
2021/12/30 00:59:38;;;;;;;9.65;6.13;;;;;;;7.85;87.46;99974.06;5011441;28;20061;-77
2021/12/30 01:02:03;;;;;;;8.93;6.32;;;;;;;7.89;87.67;99977.56;5011347;28;20082;-77
2021/12/30 01:04:29;;;;;;;8.05;5.40;;;;;;;7.87;87.36;99980.19;5013274;28;20076;-77
2021/12/30 01:06:54;;;;;;;7.53;5.35;;;;;;;7.90;87.47;99988.06;5015010;28;20424;-77
2021/12/30 01:09:19;;;;;;;7.25;4.70;;;;;;;7.93;88.07;99981.91;5015169;28;20056;-76
2021/12/30 01:11:45;;;;;;;7.90;5.20;;;;;;;7.94;87.85;99993.28;5013893;28;20477;-77
2021/12/30 01:14:18;;;;;;;7.30;4.63;;;;;;;8.00;87.71;99999.41;5015288;28;20049;-77
2021/12/30 01:16:47;;;;;;;8.50;5.65;;;;;;;8.06;88.11;99998.50;5014899;28;20065;-77
2021/12/30 01:19:24;;;;;;;8.23;5.40;;;;;;;7.93;88.80;99994.19;5014965;28;20052;-77
2021/12/30 01:21:52;;;;;;;7.70;4.60;;;;;;;8.01;88.83;99995.88;5015086;28;20041;-77
2021/12/30 01:24:18;;;;;;;7.97;4.97;;;;;;;8.06;88.65;100002.00;5015031;28;20038;-77
2021/12/30 01:26:44;;;;;;;7.78;4.50;;;;;;;8.11;89.01;100004.63;5014502;28;20034;-77
2021/12/30 01:29:09;;;;;;;7.88;4.82;;;;;;;8.14;88.69;99991.47;5014757;28;20515;-77
2021/12/30 01:31:34;;;;;;;6.88;4.68;;;;;;;8.18;88.91;100001.09;5013507;28;20030;-76
2021/12/30 01:34:00;;;;;;;7.88;5.53;;;;;;;8.21;88.60;100000.19;5014825;28;20087;-77
2021/12/30 01:36:27;;;;;;;6.90;4.90;;;;;;;8.22;88.29;100004.56;5014396;28;20117;-77
2021/12/30 01:38:54;;;;;;;7.97;5.18;;;;;;;8.26;88.79;100004.56;5014753;28;20059;-77
2021/12/30 01:41:21;;;;;;;8.15;5.35;;;;;;;8.26;88.39;99999.28;5014488;28;20042;-77
2021/12/30 01:43:46;;;;;;;9.32;5.20;;;;;;;8.27;88.40;100005.41;5014546;28;20034;-77
2021/12/30 01:46:11;;;;;;;7.28;4.75;;;;;;;8.23;88.82;100025.59;5014171;28;20033;-77
2021/12/30 01:48:37;;;;;;;7.45;5.40;;;;;;;8.24;88.75;100023.84;5014435;28;20045;-77
2021/12/30 01:51:04;;;;;;;8.57;5.72;;;;;;;8.19;88.94;100017.72;5014093;28;20091;-77
2021/12/30 01:53:29;;;;;;;9.00;5.75;;;;;;;8.16;89.08;100021.25;5014343;28;20124;-77
2021/12/30 01:55:55;;;;;;;6.07;4.35;;;;;;;8.17;89.54;100027.38;5013674;28;20091;-77
2021/12/30 01:58:20;;;;;;;7.28;4.47;;;;;;;8.16;89.86;100034.38;5014210;28;20033;-77
2021/12/30 02:00:48;;;;;;;6.60;4.45;;;;;;;8.19;90.48;100034.38;5013836;28;20048;-77
2021/12/30 02:03:14;;;;;;;7.47;4.10;;;;;;;8.19;90.66;100034.38;5014243;28;20504;-77
2021/12/30 02:05:40;;;;;;;5.72;4.20;;;;;;;8.16;90.67;100038.78;5013839;28;20038;-77
2021/12/30 02:08:07;;;;;;;5.97;4.07;;;;;;;8.19;91.08;100036.13;5013874;28;20042;-77
2021/12/30 02:10:33;;;;;;;5.75;4.13;;;;;;;8.25;91.10;100039.63;5013894;28;20052;-77
2021/12/30 02:12:59;;;;;;;5.97;3.80;;;;;;;8.34;90.65;100017.66;5014088;28;20033;-77
2021/12/30 02:15:24;;;;;;;6.15;3.85;;;;;;;8.30;90.97;100015.91;5013573;28;20046;-77
2021/12/30 02:17:51;;;;;;;7.00;3.95;;;;;;;8.34;90.79;100018.53;5013904;28;20018;-76
2021/12/30 02:20:45;;;;;;;7.20;4.70;;;;;;;8.37;90.46;100017.63;5013938;28;20555;-77
2021/12/30 02:23:13;;;;;;;4.88;3.50;;;;;;;8.37;90.78;100016.75;5010523;28;20405;-76
2021/12/30 02:25:39;;;;;;;5.13;3.72;;;;;;;8.38;90.75;100023.75;5013576;28;20034;-76
2021/12/30 02:28:09;;;;;;;4.85;3.25;;;;;;;8.40;90.92;100028.16;5013720;28;20034;-77
2021/12/30 02:30:35;;;;;;;5.32;3.47;;;;;;;8.40;90.99;100024.66;5012902;28;20058;-77
2021/12/30 02:33:01;;;;;;;5.55;3.75;;;;;;;8.45;91.07;100038.66;5013561;28;20488;-77
2021/12/30 02:35:27;;;;;;;6.38;3.85;;;;;;;8.45;91.23;100025.53;5013299;28;20044;-77
2021/12/30 02:37:52;;;;;;;5.50;3.55;;;;;;;8.46;91.14;100027.25;5013409;28;20045;-77
2021/12/30 02:40:37;;;;;;;5.38;3.75;;;;;;;8.46;92.04;100022.00;5013473;28;20030;-77
2021/12/30 02:43:05;;;;;;;6.18;3.35;;;;;;;8.49;92.18;100022.00;5010823;28;20038;-77
2021/12/30 02:45:31;;;;;;;5.72;3.60;;;;;;;8.53;92.27;100015.81;5012042;28;20037;-77
2021/12/30 02:47:56;;;;;;;4.30;3.13;;;;;;;8.52;92.29;100016.72;5013284;28;20026;-77
2021/12/30 02:50:21;;;;;;;6.85;3.70;;;;;;;8.52;92.32;100016.72;5013198;28;20030;-77
2021/12/30 02:52:47;;;;;;;4.60;3.33;;;;;;;8.56;92.18;100011.41;5013517;28;20593;-77
2021/12/30 02:55:12;;;;;;;5.82;3.67;;;;;;;8.60;92.04;100025.44;5012895;28;20382;-77
2021/12/30 02:57:37;;;;;;;4.47;3.08;;;;;;;8.58;92.01;100032.44;5011895;28;20088;-77
2021/12/30 03:00:06;;;;;;;5.25;3.67;;;;;;;8.57;92.42;100041.25;5013220;28;20134;-77
2021/12/30 03:02:35;;;;;;;5.85;4.18;;;;;;;8.50;93.00;100031.63;5013014;28;20041;-77
2021/12/30 03:05:03;;;;;;;8.10;4.07;;;;;;;8.56;92.96;100023.69;5012761;28;20045;-77
2021/12/30 03:07:28;;;;;;;7.32;4.03;;;;;;;8.57;93.02;100025.47;5012784;28;20045;-77
2021/12/30 03:09:54;;;;;;;5.80;4.30;;;;;;;8.55;93.91;100027.22;5020204;28;20094;-77
2021/12/30 03:12:19;;;;;;;4.88;3.67;;;;;;;8.54;93.85;100028.97;5012950;28;20041;-77
2021/12/30 03:14:45;;;;;;;5.20;4.10;;;;;;;8.53;94.17;100035.09;5012699;28;20041;-76
2021/12/30 03:17:11;;;;;;;6.47;4.05;;;;;;;8.56;94.36;100034.22;5012755;28;20034;-77
2021/12/30 03:19:36;;;;;;;7.60;5.05;;;;;;;8.54;94.63;100051.75;5012743;28;20041;-77
2021/12/30 03:22:02;;;;;;;6.05;4.43;;;;;;;8.53;94.65;100060.53;5012749;28;20428;-77
2021/12/30 03:24:27;;;;;;;6.13;4.18;;;;;;;8.53;95.33;100071.06;5012461;28;20124;-77
2021/12/30 03:26:53;;;;;;;7.47;3.92;;;;;;;8.50;95.93;100085.09;5012122;28;20038;-77
2021/12/30 03:29:19;;;;;;;5.78;3.22;;;;;;;8.55;96.10;100090.34;5008667;28;20034;-77
2021/12/30 03:31:44;;;;;;;5.28;3.60;;;;;;;8.56;96.25;100097.34;5011300;28;20498;-77
2021/12/30 03:34:09;;;;;;;7.05;4.95;;;;;;;8.61;96.32;100089.44;5012495;28;20029;-77
2021/12/30 03:36:37;;;;;;;5.90;4.38;;;;;;;8.63;96.72;100098.19;5012241;28;20041;-77
2021/12/30 03:39:03;;;;;;;4.82;3.95;;;;;;;8.67;96.12;100082.41;5012354;28;20409;-77
2021/12/30 03:41:30;;;;;;;5.05;3.55;;;;;;;8.71;96.35;100089.38;5012268;28;20076;-77
2021/12/30 03:44:00;;;;;;;4.88;3.80;;;;;;;8.78;96.59;100092.84;5012063;28;20088;-76
2021/12/30 03:46:25;;;;;;;6.30;4.20;;;;;;;8.82;96.39;100099.81;5012440;28;20030;-77
2021/12/30 03:48:51;;;;;;;6.55;3.55;;;;;;;8.86;96.10;100108.59;5010889;28;20132;-77
2021/12/30 03:51:21;;;;;;;5.38;3.40;;;;;;;8.90;95.72;100107.69;5012129;28;20124;-77
2021/12/30 03:53:49;;;;;;;5.32;3.47;;;;;;;9.02;95.29;100123.41;5012390;28;20471;-77
2021/12/30 03:56:16;;;;;;;5.80;3.70;;;;;;;8.98;95.04;100124.28;5010689;28;20038;-76
2021/12/30 03:58:43;;;;;;;6.93;3.60;;;;;;;9.04;94.95;100124.28;5012184;28;20151;-77
2021/12/30 04:01:10;;;;;;;4.65;3.53;;;;;;;9.04;95.12;100126.00;5010643;28;20484;-77
2021/12/30 04:03:36;;;;;;;5.50;3.83;;;;;;;9.08;95.15;100122.50;5011789;28;20042;-77
2021/12/30 04:06:01;;;;;;;6.60;4.13;;;;;;;9.10;94.81;100139.16;5011747;28;20124;-77
2021/12/30 04:08:26;;;;;;;4.50;3.30;;;;;;;9.16;94.58;100142.59;5011764;28;20068;-77
2021/12/30 04:10:52;;;;;;;5.40;3.47;;;;;;;9.21;93.83;100140.81;5011925;28;20087;-77
2021/12/30 04:13:17;;;;;;;5.82;4.32;;;;;;;9.18;94.00;100146.09;5011962;28;20041;-77
2021/12/30 04:15:43;;;;;;;4.75;3.45;;;;;;;9.19;93.71;100147.84;5010511;28;20054;-77
2021/12/30 04:18:08;;;;;;;5.38;3.53;;;;;;;9.19;93.84;100149.59;5011780;28;20061;-77
2021/12/30 04:20:34;;;;;;;5.72;3.47;;;;;;;9.24;93.56;100150.44;5011745;28;20045;-77
2021/12/30 04:22:59;;;;;;;4.18;3.30;;;;;;;9.29;93.23;100160.97;5011544;28;20033;-77
2021/12/30 04:25:26;;;;;;;6.00;3.55;;;;;;;9.33;93.08;100160.94;5011396;28;20037;-77
2021/12/30 04:27:51;;;;;;;7.07;3.80;;;;;;;9.37;93.09;100180.22;5011579;28;20034;-77
2021/12/30 04:30:17;;;;;;;6.32;3.60;;;;;;;9.34;93.00;100196.03;5010371;28;20412;-76
2021/12/30 04:32:44;;;;;;;5.43;3.47;;;;;;;9.34;92.83;100204.81;5011857;28;20045;-77
2021/12/30 04:35:10;;;;;;;5.72;3.20;;;;;;;9.38;92.71;100205.69;5011435;28;20038;-77
2021/12/30 04:37:36;;;;;;;8.18;3.85;;;;;;;9.40;92.93;100196.00;5011851;28;20389;-77
2021/12/30 04:40:04;;;;;;;5.70;3.72;;;;;;;9.47;92.13;100205.63;5015570;28;20049;-77
2021/12/30 04:42:30;;;;;;;4.68;3.10;;;;;;;9.42;92.37;100216.16;5015597;28;20080;-77
2021/12/30 04:44:55;;;;;;;6.47;3.47;;;;;;;9.38;92.85;100219.72;5015409;28;20038;-77
2021/12/30 04:47:21;;;;;;;5.90;3.45;;;;;;;9.41;93.03;100229.38;5014902;28;20392;-76
2021/12/30 04:49:46;;;;;;;6.05;3.90;;;;;;;9.46;92.88;100230.22;5015248;28;20420;-77
2021/12/30 04:52:12;;;;;;;5.50;4.53;;;;;;;9.44;92.65;100247.78;5015579;28;20037;-77
2021/12/30 04:54:37;;;;;;;6.88;3.95;;;;;;;9.41;92.64;100250.44;5014858;28;20532;-77
2021/12/30 04:57:03;;;;;;;5.68;4.20;;;;;;;9.38;93.11;100246.06;5015195;28;20034;-77
2021/12/30 04:59:28;;;;;;;5.55;3.95;;;;;;;9.41;92.35;100250.44;5022440;28;20120;-77
2021/12/30 05:01:54;;;;;;;6.47;4.05;;;;;;;9.34;92.73;100264.53;5015364;28;20127;-77
2021/12/30 05:04:19;;;;;;;7.18;3.90;;;;;;;9.38;92.55;100258.38;5015112;28;20377;-78
2021/12/30 05:06:44;;;;;;;7.78;4.65;;;;;;;9.29;92.69;100253.13;5018930;28;20048;-77
2021/12/30 05:09:10;;;;;;;7.10;4.18;;;;;;;9.26;93.03;100255.78;5013868;28;20041;-77
2021/12/30 05:11:39;;;;;;;7.47;4.85;;;;;;;9.17;93.53;100254.97;5005939;28;20041;-77
2021/12/30 05:14:04;;;;;;;6.78;4.20;;;;;;;9.14;93.78;100254.06;5011308;28;20408;-77
2021/12/30 05:16:30;;;;;;;9.30;5.32;;;;;;;9.07;93.96;100266.41;5014789;28;20044;-77
2021/12/30 05:18:57;;;;;;;7.97;5.28;;;;;;;9.05;94.26;100257.63;5013710;28;20041;-77
2021/12/30 05:21:24;;;;;;;8.18;4.75;;;;;;;9.03;94.49;100250.63;5014993;28;20042;-77
2021/12/30 05:23:49;;;;;;;7.82;4.60;;;;;;;9.09;94.13;100256.75;5014812;28;20034;-77
2021/12/30 05:26:18;;;;;;;6.68;5.13;;;;;;;9.07;94.32;100268.19;5014511;28;20045;-77
2021/12/30 05:28:44;;;;;;;7.82;5.10;;;;;;;9.03;93.99;100266.41;5014789;28;20049;-77
2021/12/30 05:31:10;;;;;;;6.55;4.82;;;;;;;9.03;94.80;100256.75;5021847;28;20037;-77
2021/12/30 05:33:36;;;;;;;6.63;4.93;;;;;;;9.05;94.98;100243.59;5014202;28;20042;-77
2021/12/30 05:36:01;;;;;;;8.60;5.05;;;;;;;9.01;94.40;100250.63;5014682;28;20049;-77
2021/12/30 05:38:26;;;;;;;8.55;4.50;;;;;;;9.08;94.70;100257.63;5014464;28;20053;-77
2021/12/30 05:40:52;;;;;;;8.98;4.50;;;;;;;9.13;94.85;100253.19;5013872;28;20496;-77
2021/12/30 05:43:17;;;;;;;8.63;4.43;;;;;;;9.16;94.39;100258.44;5014442;28;20041;-76
2021/12/30 05:45:43;;;;;;;6.70;4.80;;;;;;;9.18;94.58;100261.09;5014199;28;20035;-77
2021/12/30 05:48:08;;;;;;;7.88;4.68;;;;;;;9.25;94.49;100269.81;5010264;28;20117;-77
2021/12/30 05:50:34;;;;;;;7.72;4.88;;;;;;;9.25;94.60;100256.66;5013904;28;20037;-77
2021/12/30 05:52:59;;;;;;;7.60;4.45;;;;;;;9.31;94.34;100272.44;5014237;28;20153;-77
2021/12/30 05:55:25;;;;;;;7.18;4.32;;;;;;;9.42;94.48;100274.13;5021203;28;20407;-77
2021/12/30 05:57:52;;;;;;;6.82;4.55;;;;;;;9.48;94.26;100274.97;5013007;28;20377;-77
2021/12/30 06:00:19;;;;;;;8.02;4.78;;;;;;;9.55;93.95;100276.69;5014124;28;20048;-77
2021/12/30 06:02:45;;;;;;;8.80;5.22;;;;;;;9.57;93.33;100274.94;5014094;28;20113;-77
2021/12/30 06:05:11;;;;;;;9.45;4.35;;;;;;;9.64;93.66;100277.53;5013980;28;20555;-77
2021/12/30 06:07:36;;;;;;;8.55;5.00;;;;;;;9.66;93.83;100275.72;5013843;28;20026;-77
2021/12/30 06:10:03;;;;;;;10.32;4.30;;;;;;;9.77;93.01;100273.03;5021268;28;20439;-77
2021/12/30 06:12:28;;;;;;;8.27;4.97;;;;;;;9.78;93.07;100255.47;5014010;28;20061;-77
2021/12/30 06:14:53;;;;;;;7.43;4.55;;;;;;;9.82;92.96;100259.81;5013742;28;20077;-77
2021/12/30 06:17:19;;;;;;;7.70;4.13;;;;;;;9.90;92.55;100258.00;5013540;28;20046;-77
2021/12/30 06:19:44;;;;;;;7.32;4.03;;;;;;;9.93;92.49;100263.25;5009125;28;20034;-77
2021/12/30 06:22:13;;;;;;;8.52;4.88;;;;;;;9.93;92.16;100265.91;5013262;28;20048;-77
2021/12/30 06:24:40;;;;;;;6.68;4.30;;;;;;;9.91;92.71;100270.31;5012416;28;20045;-77
2021/12/30 06:27:06;;;;;;;6.93;4.05;;;;;;;9.93;92.47;100272.91;5013706;28;20038;-77
2021/12/30 06:29:31;;;;;;;7.63;4.32;;;;;;;9.93;92.18;100273.81;5031612;28;20036;-77
2021/12/30 06:31:56;;;;;;;8.00;4.47;;;;;;;9.93;92.15;100276.44;5019119;28;20101;-77
2021/12/30 06:34:22;;;;;;;9.07;4.80;;;;;;;9.94;92.42;100279.94;5016807;28;20137;-77
2021/12/30 06:36:48;;;;;;;8.65;4.70;;;;;;;9.90;92.26;100279.06;5013426;28;20408;-77
2021/12/30 06:39:13;;;;;;;11.20;5.47;;;;;;;9.87;92.42;100287.00;5013491;28;20080;-77
2021/12/30 06:41:39;;;;;;;6.85;4.60;;;;;;;9.79;92.45;100289.69;5012101;28;20042;-77
2021/12/30 06:44:05;;;;;;;8.38;4.68;;;;;;;9.71;93.01;100296.78;5013416;28;20041;-77
2021/12/30 06:46:30;;;;;;;7.25;4.50;;;;;;;9.61;92.60;100293.31;5013112;28;20034;-77
2021/12/30 06:48:55;;;;;;;7.20;4.40;;;;;;;9.56;93.39;100294.25;5013348;28;20052;-77
2021/12/30 06:51:26;;;;;;;10.90;5.68;;;;;;;9.50;93.55;100295.16;5011771;28;20420;-77
2021/12/30 06:53:54;;;;;;;7.53;4.53;;;;;;;9.41;93.39;100292.59;5009489;28;20040;-77
2021/12/30 06:56:21;;;;;;;7.80;5.22;;;;;;;9.35;94.06;100275.06;5009149;28;20038;-76
2021/12/30 06:58:47;;;;;;;11.13;6.15;;;;;;;9.34;94.17;100290.84;5009105;28;20052;-77
2021/12/30 07:01:12;;;;;;;7.80;5.47;;;;;;;9.34;94.44;100298.75;5012172;28;20476;-77
2021/12/30 07:03:38;;;;;;;8.95;5.35;;;;;;;9.39;94.72;100296.97;5012901;28;20041;-77
2021/12/30 07:06:03;;;;;;;12.75;5.72;;;;;;;9.45;94.26;100315.38;5012718;28;20377;-77
2021/12/30 07:08:28;;;;;;;13.50;5.35;;;;;;;9.49;94.20;100313.63;5012843;28;20038;-77
2021/12/30 07:10:54;;;;;;;11.20;5.28;;;;;;;9.56;93.82;100318.84;5012838;28;20038;-77
2021/12/30 07:13:19;;;;;;;9.32;5.00;;;;;;;9.55;93.62;100325.00;5012816;28;20052;-77
2021/12/30 07:15:44;;;;;;;9.48;4.63;;;;;;;9.51;93.75;100322.38;5019677;28;20030;-77
2021/12/30 07:18:10;;;;;;;13.88;5.95;;;;;;;9.51;93.40;100328.53;5012629;28;20041;-77
2021/12/30 07:20:35;;;;;;;7.00;4.75;;;;;;;9.46;93.90;100318.88;5012576;28;20038;-77
2021/12/30 07:23:02;;;;;;;12.05;4.75;;;;;;;9.47;93.71;100320.66;5011396;28;20030;-77
2021/12/30 07:25:27;;;;;;;10.40;4.53;;;;;;;9.52;93.67;100337.31;5008472;28;20544;-77
2021/12/30 07:27:54;;;;;;;9.07;4.38;;;;;;;9.59;93.66;100350.44;5012481;28;20141;-77
2021/12/30 07:30:22;;;;;;;8.52;4.85;;;;;;;9.64;93.13;100339.84;5012347;28;20073;-77
2021/12/30 07:32:48;;;;;;;8.80;4.45;;;;;;;9.68;93.45;100346.88;5012363;28;20042;-77
2021/12/30 07:35:15;;;;;;;13.80;5.43;;;;;;;9.77;92.86;100352.13;5011872;28;20143;-77
2021/12/30 07:37:40;;;;;;;10.63;5.00;;;;;;;9.84;92.94;100358.22;5012298;28;20034;-77
2021/12/30 07:40:07;;;;;;;9.93;4.65;;;;;;;9.92;92.79;100361.66;5012271;28;20049;-77
2021/12/30 07:42:32;;;;;;;11.32;4.80;;;;;;;9.96;92.10;100368.69;5012173;28;20038;-77
2021/12/30 07:44:57;;;;;;;14.40;5.57;;;;;;;10.00;91.94;100366.91;5012012;28;20427;-77
2021/12/30 07:47:23;;;;;;;8.05;4.45;;;;;;;10.04;91.88;100361.59;5012093;28;20143;-77
2021/12/30 07:49:48;;;;;;;11.85;6.72;;;;;;;10.10;91.72;100366.81;5010796;28;20056;-77
2021/12/30 07:52:15;;;;;;;11.32;5.78;;;;;;;10.18;91.61;100358.84;5012401;28;20054;-77
2021/12/30 07:54:43;;;;;;;10.65;6.15;;;;;;;10.20;91.29;100366.78;5011907;28;20051;-77
2021/12/30 07:57:09;;;;;;;13.40;6.40;;;;;;;10.25;91.10;100364.97;5012098;28;20551;-77
2021/12/30 07:59:35;;;;;;;8.85;5.68;;;;;;;10.28;91.01;100362.34;5011989;28;20125;-77
2021/12/30 08:02:00;;;;;;;10.35;5.05;;;;;;;10.35;90.77;100361.41;5011955;28;20645;-77
2021/12/30 08:04:25;;;;;;;9.32;4.50;;;;;;;10.39;90.77;100368.41;5011743;28;20463;-77
2021/12/30 08:06:51;;;;;;;10.70;5.25;;;;;;;10.42;90.37;100367.50;5011818;28;20042;-77
2021/12/30 08:09:16;;;;;;;12.55;4.07;;;;;;;10.49;90.16;100375.34;5011818;28;20084;-77
2021/12/30 08:11:41;;;;;;;13.52;4.90;;;;;;;10.50;90.05;100377.09;5011683;28;20049;-77
2021/12/30 08:14:07;;;;;;;10.30;4.55;;;;;;;10.51;89.97;100376.22;5011479;28;20046;-77
2021/12/30 08:16:32;;;;;;;9.93;4.45;;;;;;;10.50;89.37;100387.66;5018718;28;20088;-77
2021/12/30 08:18:58;;;;;;;13.00;5.22;;;;;;;10.55;89.49;100384.13;5011216;28;20037;-77
2021/12/30 08:21:24;;;;;;;10.20;5.30;;;;;;;10.51;89.35;100386.78;5011616;28;20121;-77
2021/12/30 08:23:51;;;;;;;11.25;5.10;;;;;;;10.55;89.52;100384.13;5011802;28;20114;-77
2021/12/30 08:26:20;;;;;;;13.10;5.10;;;;;;;10.54;89.15;100385.88;5011479;28;20511;-77
2021/12/30 08:28:46;;;;;;;8.43;4.65;;;;;;;10.57;89.14;100387.63;5007931;28;20060;-77
2021/12/30 08:31:12;;;;;;;10.20;5.05;;;;;;;10.61;88.77;100394.59;5011591;28;20030;-77
2021/12/30 08:33:37;;;;;;;13.05;4.70;;;;;;;10.65;88.41;100406.91;5011612;28;20404;-77
2021/12/30 08:36:03;;;;;;;8.23;4.30;;;;;;;10.55;88.25;100419.28;5011342;28;20121;-77
2021/12/30 08:38:29;;;;;;;10.88;4.53;;;;;;;10.53;88.49;100408.75;5011663;28;20038;-77
2021/12/30 08:40:54;;;;;;;8.60;4.38;;;;;;;10.53;88.55;100398.22;5011445;28;20048;-77
2021/12/30 08:43:19;;;;;;;9.07;3.80;;;;;;;10.55;88.82;100390.25;5013081;28;20382;-77
2021/12/30 08:45:46;;;;;;;10.23;3.97;;;;;;;10.61;88.48;100402.53;5011255;28;20045;-77
2021/12/30 08:48:12;;;;;;;13.50;4.22;;;;;;;10.63;88.47;100398.13;5011338;28;20034;-77
2021/12/30 08:50:38;;;;;;;11.20;4.05;;;;;;;10.66;87.84;100387.53;5010116;28;20042;-77
2021/12/30 08:53:04;;;;;;;11.00;4.50;;;;;;;10.64;87.87;100384.03;5018547;28;20063;-77
2021/12/30 08:55:29;;;;;;;7.35;4.32;;;;;;;10.69;87.84;100384.88;5009989;28;20034;-77
2021/12/30 08:57:55;;;;;;;8.77;3.50;;;;;;;10.77;87.46;100383.03;5018404;28;20049;-77
2021/12/30 09:00:24;;;;;;;9.32;3.75;;;;;;;10.80;87.14;100387.41;5010033;28;20116;-77
2021/12/30 09:02:53;;;;;;;7.70;3.35;;;;;;;10.83;87.24;100390.91;5021001;28;20041;-77
2021/12/30 09:05:19;;;;;;;7.63;3.08;;;;;;;10.90;87.01;100402.28;5007642;28;20041;-77
2021/12/30 09:07:46;;;;;;;8.40;3.42;;;;;;;10.96;86.30;100408.38;5011222;28;20033;-77
2021/12/30 09:10:14;;;;;;;10.30;3.53;;;;;;;11.04;86.24;100415.34;5011278;28;20484;-77
2021/12/30 09:12:43;;;;;;;7.07;3.03;;;;;;;11.03;85.55;100406.56;5011285;28;20045;-77
2021/12/30 09:15:11;;;;;;;8.77;3.15;;;;;;;11.07;85.28;100420.59;5006972;28;20045;-77
2021/12/30 09:17:37;;;;;;;9.10;2.70;;;;;;;11.06;84.64;100417.09;5011203;28;20140;-77
2021/12/30 09:20:03;;;;;;;9.07;3.28;;;;;;;11.08;84.88;100428.53;5011069;28;20405;-77
2021/12/30 09:22:29;;;;;;;11.00;3.22;;;;;;;11.16;84.33;100431.06;5011130;28;20044;-77
2021/12/30 09:24:54;;;;;;;9.32;3.50;;;;;;;11.20;84.39;100435.44;5013172;28;20124;-77
2021/12/30 09:27:19;;;;;;;11.85;4.00;;;;;;;11.22;84.21;100420.44;5014701;28;20033;-77
2021/12/30 09:29:45;;;;;;;7.40;3.25;;;;;;;11.36;83.66;100418.50;5014604;28;20092;-77
2021/12/30 09:32:10;;;;;;;7.68;2.95;;;;;;;11.51;83.24;100411.31;5014446;28;20053;-77
2021/12/30 09:34:35;;;;;;;7.43;2.95;;;;;;;11.62;82.57;100406.75;5013225;28;20044;-77
2021/12/30 09:37:02;;;;;;;8.55;3.45;;;;;;;11.70;82.60;100391.69;5014741;28;20531;-76
2021/12/30 09:39:28;;;;;;;10.10;3.25;;;;;;;11.83;80.80;100393.25;5014633;28;20034;-77
2021/12/30 09:41:53;;;;;;;9.32;2.75;;;;;;;11.94;81.01;100385.22;5013225;28;20041;-78
2021/12/30 09:44:19;;;;;;;5.88;2.70;;;;;;;12.03;80.56;100382.44;5014381;28;20037;-78
2021/12/30 09:46:46;;;;;;;10.43;2.47;;;;;;;12.01;80.27;100378.94;5021377;28;20133;-78
2021/12/30 09:49:18;;;;;;;6.90;3.00;;;;;;;12.06;80.37;100378.88;5014475;28;20116;-77
2021/12/30 09:51:44;;;;;;;9.80;3.50;;;;;;;12.05;80.11;100375.38;5022704;28;20038;-77
2021/12/30 09:54:10;;;;;;;10.65;3.30;;;;;;;11.99;80.24;100382.50;5014414;28;20488;-77
2021/12/30 09:56:36;;;;;;;6.93;2.47;;;;;;;11.98;80.01;100376.34;5014056;28;20034;-77
2021/12/30 09:59:02;;;;;;;9.25;3.05;;;;;;;11.95;79.75;100375.53;5019719;28;20034;-78
2021/12/30 10:01:27;;;;;;;11.77;3.50;;;;;;;11.94;79.65;100384.34;5014205;28;20061;-77
2021/12/30 10:04:00;;;;;;;10.75;3.30;;;;;;;12.01;79.61;100384.25;5012748;28;20042;-78
2021/12/30 10:06:26;;;;;;;8.07;3.25;;;;;;;12.01;79.65;100378.06;5011161;28;20048;-78
2021/12/30 10:09:09;;;;;;;10.73;2.90;;;;;;;12.00;79.71;100374.56;5013697;28;20037;-77
2021/12/30 10:11:47;;;;;;;8.75;3.13;;;;;;;11.99;79.97;100386.03;5026205;28;20038;-77
2021/12/30 10:14:12;;;;;;;10.23;3.55;;;;;;;12.02;80.12;100383.31;5013698;28;20042;-77
2021/12/30 10:16:38;;;;;;;8.20;3.40;;;;;;;12.02;79.98;100385.09;5013587;28;20030;-78
2021/12/30 10:19:05;;;;;;;8.77;3.03;;;;;;;12.04;79.88;100380.69;5013820;28;20052;-78
2021/12/30 10:21:37;;;;;;;6.13;2.63;;;;;;;12.07;80.02;100375.34;5013935;28;20416;-77
2021/12/30 10:24:08;;;;;;;10.13;2.80;;;;;;;11.99;80.00;100366.63;5012840;28;20481;-77
2021/12/30 10:26:56;;;;;;;7.72;2.72;;;;;;;12.11;79.61;100376.19;5012409;28;20682;-77
2021/12/30 10:29:22;;;;;;;12.82;3.60;;;;;;;12.12;79.69;100368.19;5010651;28;20073;-77
2021/12/30 10:31:48;;;;;;;6.15;2.72;;;;;;;12.22;79.40;100372.47;5013643;28;20065;-77
2021/12/30 10:34:16;;;;;;;9.45;3.30;;;;;;;12.19;79.53;100369.88;5013781;28;20037;-78
2021/12/30 10:36:45;;;;;;;8.48;2.67;;;;;;;12.19;79.61;100369.88;5008586;28;20072;-78
2021/12/30 10:39:28;;;;;;;8.98;2.58;;;;;;;12.12;79.56;100368.19;5005475;28;20034;-77
2021/12/30 10:42:05;;;;;;;6.65;2.40;;;;;;;12.12;79.25;100365.56;5011713;28;20037;-78
2021/12/30 10:44:48;;;;;;;8.93;2.97;;;;;;;12.17;78.91;100370.78;5013327;28;20048;-77
2021/12/30 10:47:15;;;;;;;6.75;2.75;;;;;;;12.23;79.18;100379.50;5024121;28;20041;-77
2021/12/30 10:49:40;;;;;;;8.88;3.70;;;;;;;12.26;79.30;100371.53;5013441;28;20046;-77
2021/12/30 10:52:06;;;;;;;10.73;3.53;;;;;;;12.22;79.15;100368.94;5012237;28;20026;-77
2021/12/30 10:54:36;;;;;;;11.32;3.28;;;;;;;12.26;79.14;100371.53;5013170;28;20393;-77
2021/12/30 10:57:07;;;;;;;9.57;2.55;;;;;;;12.30;78.85;100374.13;5013166;28;20034;-78
2021/12/30 10:59:37;;;;;;;7.93;2.85;;;;;;;12.27;78.88;100378.56;5013270;28;20030;-77
2021/12/30 11:02:04;;;;;;;6.68;2.30;;;;;;;12.31;79.47;100375.84;5013326;28;20100;-77
2021/12/30 11:04:49;;;;;;;9.57;2.80;;;;;;;12.28;78.53;100379.44;5012891;28;20042;-78
2021/12/30 11:07:18;;;;;;;7.97;2.20;;;;;;;12.21;79.32;100386.59;5013016;28;20041;-77
2021/12/30 11:09:55;;;;;;;9.00;2.72;;;;;;;12.26;79.20;100379.47;5012989;28;20485;-78
2021/12/30 11:12:29;;;;;;;7.50;2.83;;;;;;;12.31;79.34;100375.84;5010007;28;20560;-77
2021/12/30 11:14:55;;;;;;;10.77;2.95;;;;;;;12.39;79.20;100366.91;5012717;28;20102;-78
2021/12/30 11:17:29;;;;;;;7.45;2.97;;;;;;;12.44;79.22;100373.00;5012921;28;20107;-78
2021/12/30 11:19:58;;;;;;;7.90;2.80;;;;;;;12.42;79.06;100376.59;5012694;28;20135;-77
2021/12/30 11:22:30;;;;;;;7.72;3.53;;;;;;;12.46;79.15;100375.63;5012836;28;20045;-78
2021/12/30 11:24:58;;;;;;;9.55;3.13;;;;;;;12.50;79.46;100374.69;5011949;28;20041;-78
2021/12/30 11:27:25;;;;;;;10.40;3.67;;;;;;;12.54;78.93;100368.41;5012563;28;20088;-78